createdAt,value
2022-11-19T00:02:10.196Z,100.00
2022-11-19T00:04:38.767Z,100.00
2022-11-19T00:07:07.536Z,100.00
2022-11-19T00:09:37.452Z,100.00
2022-11-19T00:12:24.030Z,100.00
2022-11-19T00:14:52.384Z,100.00
2022-11-19T00:17:20.823Z,100.00
2022-11-19T00:19:49.147Z,100.00
2022-11-19T00:22:17.590Z,100.00
2022-11-19T00:24:47.493Z,100.00
2022-11-19T00:27:15.927Z,100.00
2022-11-19T00:29:44.320Z,100.00
2022-11-19T00:32:12.763Z,100.00
2022-11-19T00:34:41.413Z,100.00
2022-11-19T00:37:09.824Z,100.00
2022-11-19T00:39:38.467Z,100.00
2022-11-19T00:42:08.348Z,100.00
2022-11-19T00:44:37.563Z,100.00
2022-11-19T00:47:06.508Z,100.00
2022-11-19T00:49:34.845Z,100.00
2022-11-19T00:52:03.268Z,100.00
2022-11-19T00:54:31.656Z,100.00
2022-11-19T00:57:00.143Z,100.00
2022-11-19T00:59:30.427Z,100.00
2022-11-19T01:01:58.892Z,100.00
2022-11-19T01:04:27.607Z,100.00
2022-11-19T01:06:56.349Z,100.00
2022-11-19T01:09:25.047Z,100.00
2022-11-19T01:11:53.486Z,100.00
2022-11-19T01:14:21.937Z,100.00
2022-11-19T01:16:51.759Z,100.00
2022-11-19T01:19:20.673Z,100.00
2022-11-19T01:21:49.321Z,100.00
2022-11-19T01:24:17.715Z,100.00
2022-11-19T01:26:46.368Z,100.00
2022-11-19T01:29:15.097Z,100.00
2022-11-19T01:31:43.521Z,100.00
2022-11-19T01:34:13.347Z,100.00
2022-11-19T01:36:41.690Z,100.00
2022-11-19T01:39:10.104Z,100.00
2022-11-19T01:41:39.579Z,100.00
2022-11-19T01:44:09.972Z,100.00
2022-11-19T01:46:40.116Z,100.00
2022-11-19T01:49:14.710Z,100.00
2022-11-19T01:51:50.315Z,100.00
2022-11-19T01:54:26.577Z,100.00
2022-11-19T01:56:56.189Z,100.00
2022-11-19T01:59:26.530Z,100.00
2022-11-19T02:01:55.234Z,100.00
2022-11-19T02:04:27.107Z,100.00
2022-11-19T02:06:56.474Z,100.00
2022-11-19T02:09:28.012Z,100.00
2022-11-19T02:12:24.923Z,100.00
2022-11-19T02:15:15.207Z,100.00
2022-11-19T02:18:06.815Z,100.00
2022-11-19T02:20:45.882Z,100.00
2022-11-19T02:23:46.727Z,100.00
2022-11-19T02:26:46.446Z,100.00
2022-11-19T02:29:27.185Z,100.00
2022-11-19T02:32:02.192Z,100.00
2022-11-19T02:34:33.810Z,100.00
2022-11-19T02:37:06.773Z,100.00
2022-11-19T02:39:41.035Z,100.00
2022-11-19T02:42:17.539Z,100.00
2022-11-19T02:45:02.732Z,100.00
2022-11-19T02:47:37.848Z,100.00
2022-11-19T02:50:11.994Z,100.00
2022-11-19T02:52:41.776Z,100.00
2022-11-19T02:55:13.655Z,100.00
2022-11-19T02:57:44.076Z,100.00
2022-11-19T03:00:31.548Z,100.00
2022-11-19T03:03:25.238Z,100.00
2022-11-19T03:05:59.458Z,100.00
2022-11-19T03:08:29.050Z,100.00
2022-11-19T03:11:08.934Z,100.00
2022-11-19T03:14:06.131Z,100.00
2022-11-19T03:16:43.594Z,100.00
2022-11-19T03:19:38.830Z,100.00
2022-11-19T03:22:14.241Z,100.00
2022-11-19T03:24:46.807Z,100.00
2022-11-19T03:27:21.951Z,100.00
2022-11-19T03:29:55.677Z,100.00
2022-11-19T03:32:30.944Z,100.00
2022-11-19T03:35:05.845Z,100.00
2022-11-19T03:37:37.952Z,100.00
2022-11-19T03:40:10.524Z,100.00
2022-11-19T03:42:40.713Z,100.00
2022-11-19T03:45:15.389Z,100.00
2022-11-19T03:47:46.774Z,100.00
2022-11-19T03:50:21.407Z,100.00
2022-11-19T03:52:50.508Z,100.00
2022-11-19T03:55:19.268Z,100.00
2022-11-19T03:57:47.665Z,100.00
2022-11-19T04:00:16.964Z,100.00
2022-11-19T04:02:45.329Z,100.00
2022-11-19T04:05:13.654Z,100.00
2022-11-19T04:07:43.525Z,100.00
2022-11-19T04:10:11.918Z,100.00
2022-11-19T04:12:40.296Z,100.00
2022-11-19T04:15:11.559Z,100.00
2022-11-19T04:17:39.990Z,100.00
2022-11-19T04:20:10.176Z,100.00
2022-11-19T04:22:38.585Z,100.00
2022-11-19T04:25:09.739Z,100.00
2022-11-19T04:27:38.084Z,100.00
2022-11-19T04:30:07.902Z,100.00
2022-11-19T04:32:36.219Z,100.00
2022-11-19T04:35:05.100Z,100.00
2022-11-19T04:37:33.499Z,100.00
2022-11-19T04:40:02.182Z,100.00
2022-11-19T04:42:32.006Z,100.00
2022-11-19T04:45:00.449Z,100.00
2022-11-19T04:47:29.033Z,100.00
2022-11-19T04:49:57.409Z,100.00
2022-11-19T04:52:25.790Z,100.00
2022-11-19T04:54:54.177Z,100.00
2022-11-19T04:57:22.617Z,100.00
2022-11-19T04:59:52.391Z,100.00
2022-11-19T05:02:20.809Z,100.00
2022-11-19T05:04:49.182Z,100.00
2022-11-19T05:07:17.521Z,100.00
2022-11-19T05:09:45.965Z,100.00
2022-11-19T05:12:14.327Z,100.00
2022-11-19T05:14:43.030Z,100.00
2022-11-19T05:17:12.812Z,100.00
2022-11-19T05:19:41.249Z,100.00
2022-11-19T05:22:09.627Z,100.00
2022-11-19T05:24:38.082Z,100.00
2022-11-19T05:27:06.539Z,100.00
2022-11-19T05:29:34.935Z,100.00
2022-11-19T05:32:03.332Z,100.00
2022-11-19T05:34:33.139Z,100.00
2022-11-19T05:37:01.589Z,100.00
2022-11-19T05:39:29.949Z,100.00
2022-11-19T05:41:58.470Z,100.00
2022-11-19T05:44:26.910Z,100.00
2022-11-19T05:46:56.939Z,100.00
2022-11-19T05:49:25.386Z,100.00
2022-11-19T05:51:55.136Z,100.00
2022-11-19T05:54:23.575Z,100.00
2022-11-19T05:56:52.056Z,100.00
2022-11-19T05:59:21.490Z,100.00
2022-11-19T06:01:50.202Z,100.00
2022-11-19T06:04:18.602Z,100.00
2022-11-19T06:06:47.055Z,100.00
2022-11-19T06:09:17.192Z,100.00
2022-11-19T06:11:51.569Z,100.00
2022-11-19T06:14:22.295Z,100.00
2022-11-19T06:16:51.522Z,100.00
2022-11-19T06:19:20.702Z,100.00
2022-11-19T06:21:49.705Z,100.00
2022-11-19T06:24:19.778Z,100.00
2022-11-19T06:26:48.145Z,100.00
2022-11-19T06:29:17.487Z,100.00
2022-11-19T06:31:46.622Z,100.00
2022-11-19T06:34:15.044Z,100.00
2022-11-19T06:36:47.809Z,100.00
2022-11-19T06:39:20.562Z,100.00
2022-11-19T06:41:50.209Z,100.00
2022-11-19T06:44:18.915Z,100.00
2022-11-19T06:46:47.269Z,100.00
2022-11-19T06:49:20.094Z,100.00
2022-11-19T06:51:49.018Z,100.00
2022-11-19T06:54:17.381Z,100.00
2022-11-19T06:56:47.414Z,100.00
2022-11-19T06:59:15.834Z,100.00
2022-11-19T07:01:44.262Z,100.00
2022-11-19T07:04:13.076Z,100.00
2022-11-19T07:06:41.435Z,100.00
2022-11-19T07:09:09.828Z,100.00
2022-11-19T07:11:38.230Z,100.00
2022-11-19T07:14:08.675Z,100.00
2022-11-19T07:16:38.551Z,100.00
2022-11-19T07:19:09.006Z,100.00
2022-11-19T07:21:37.875Z,100.00
2022-11-19T07:24:08.921Z,100.00
2022-11-19T07:26:38.054Z,100.00
2022-11-19T07:29:09.546Z,100.00
2022-11-19T07:31:37.992Z,100.00
2022-11-19T07:34:08.235Z,100.00
2022-11-19T07:36:36.950Z,100.00
2022-11-19T07:39:05.823Z,100.00
2022-11-19T07:41:51.337Z,100.00
2022-11-19T07:44:21.514Z,100.00
2022-11-19T07:46:49.941Z,100.00
2022-11-19T07:49:18.610Z,100.00
2022-11-19T07:51:47.381Z,100.00
2022-11-19T07:54:16.390Z,100.00
2022-11-19T07:56:45.128Z,100.00
2022-11-19T07:59:13.930Z,100.00
2022-11-19T08:01:43.735Z,100.00
2022-11-19T08:04:12.383Z,100.00
2022-11-19T08:06:40.833Z,100.00
2022-11-19T08:09:09.757Z,100.00
2022-11-19T08:11:38.475Z,100.00
2022-11-19T08:14:06.930Z,100.00
2022-11-19T08:16:52.640Z,100.00
2022-11-19T08:19:22.794Z,100.00
2022-11-19T08:21:51.750Z,100.00
2022-11-19T08:24:21.548Z,100.00
2022-11-19T08:26:50.912Z,100.00
2022-11-19T08:29:23.391Z,100.00
2022-11-19T08:31:52.554Z,100.00
2022-11-19T08:34:22.993Z,100.00
2022-11-19T08:36:51.756Z,100.00
2022-11-19T08:39:20.238Z,100.00
2022-11-19T08:42:05.858Z,100.00
2022-11-19T08:44:34.819Z,100.00
2022-11-19T08:47:03.211Z,100.00
2022-11-19T08:49:33.140Z,100.00
2022-11-19T08:52:01.531Z,100.00
2022-11-19T08:54:29.940Z,100.00
2022-11-19T08:56:58.323Z,100.00
2022-11-19T08:59:27.265Z,100.00
2022-11-19T09:01:55.758Z,100.00
2022-11-19T09:04:24.119Z,100.00
2022-11-19T09:06:53.963Z,100.00
2022-11-19T09:09:22.486Z,100.00
2022-11-19T09:11:50.899Z,100.00
2022-11-19T09:14:19.617Z,100.00
2022-11-19T09:16:48.319Z,100.00
2022-11-19T09:19:16.684Z,100.00
2022-11-19T09:21:45.089Z,100.00
2022-11-19T09:24:14.992Z,100.00
2022-11-19T09:26:44.820Z,100.00
2022-11-19T09:29:14.907Z,100.00
2022-11-19T09:31:43.254Z,100.00
2022-11-19T09:34:11.602Z,100.00
2022-11-19T09:36:40.004Z,100.00
2022-11-19T09:39:08.363Z,100.00
2022-11-19T09:41:45.380Z,100.00
2022-11-19T09:44:30.340Z,100.00
2022-11-19T09:47:06.260Z,100.00
2022-11-19T09:49:43.871Z,100.00
2022-11-19T09:52:15.622Z,100.00
2022-11-19T09:54:48.250Z,100.00
2022-11-19T09:57:25.591Z,100.00
2022-11-19T09:59:57.990Z,100.00
2022-11-19T10:02:26.544Z,100.00
2022-11-19T10:04:55.477Z,100.00
2022-11-19T10:07:34.480Z,100.00
2022-11-19T10:10:18.372Z,100.00
2022-11-19T10:13:13.624Z,100.00
2022-11-19T10:15:55.300Z,100.00
2022-11-19T10:18:32.566Z,100.00
2022-11-19T10:21:08.382Z,100.00
2022-11-19T10:23:48.731Z,100.00
2022-11-19T10:26:19.104Z,100.00
2022-11-19T10:28:56.586Z,100.00
2022-11-19T10:31:34.419Z,100.00
2022-11-19T10:34:12.662Z,100.00
2022-11-19T10:36:44.029Z,100.00
2022-11-19T10:39:22.962Z,100.00
2022-11-19T10:41:57.154Z,100.00
2022-11-19T10:44:41.506Z,100.00
2022-11-19T10:47:16.604Z,100.00
2022-11-19T10:49:45.543Z,100.00
2022-11-19T10:52:23.871Z,100.00
2022-11-19T10:54:54.648Z,100.00
2022-11-19T10:57:23.624Z,100.00
2022-11-19T10:59:55.265Z,100.00
2022-11-19T11:02:30.951Z,100.00
2022-11-19T11:05:09.407Z,99.73
2022-11-19T11:08:02.274Z,100.00
2022-11-19T11:10:48.600Z,98.28
2022-11-19T11:13:53.967Z,99.51
2022-11-19T11:16:26.928Z,98.01
2022-11-19T11:18:58.224Z,98.40
2022-11-19T11:21:33.672Z,98.88
2022-11-19T11:24:04.831Z,98.67
2022-11-19T11:26:35.466Z,98.65
2022-11-19T11:29:09.456Z,96.95
2022-11-19T11:31:42.802Z,96.37
2022-11-19T11:34:29.995Z,96.86
2022-11-19T11:37:00.378Z,97.89
2022-11-19T11:39:31.521Z,98.06
2022-11-19T11:42:06.008Z,98.42
2022-11-19T11:44:36.957Z,93.28
2022-11-19T11:47:14.533Z,87.80
2022-11-19T11:49:45.235Z,85.94
2022-11-19T11:52:22.814Z,87.59
2022-11-19T11:54:59.901Z,86.61
2022-11-19T11:57:30.433Z,85.86
2022-11-19T12:00:01.756Z,87.78
2022-11-19T12:02:33.304Z,87.50
2022-11-19T12:05:04.265Z,88.29
2022-11-19T12:07:58.398Z,87.67
2022-11-19T12:10:35.674Z,89.62
2022-11-19T12:13:38.769Z,87.89
2022-11-19T12:16:14.808Z,86.26
2022-11-19T12:18:59.354Z,86.79
2022-11-19T12:21:38.235Z,84.38
2022-11-19T12:24:29.702Z,83.43
2022-11-19T12:27:07.257Z,83.83
2022-11-19T12:29:42.870Z,83.69
2022-11-19T12:32:23.459Z,84.85
2022-11-19T12:35:17.468Z,84.73
2022-11-19T12:38:01.099Z,84.67
2022-11-19T12:40:42.586Z,83.59
2022-11-19T12:43:29.402Z,85.69
2022-11-19T12:46:06.585Z,83.53
2022-11-19T12:48:51.812Z,83.63
2022-11-19T12:51:35.277Z,84.59
2022-11-19T12:54:31.787Z,84.19
2022-11-19T12:57:16.079Z,85.25
2022-11-19T12:59:57.412Z,83.83
2022-11-19T13:02:30.113Z,85.25
2022-11-19T13:05:05.461Z,83.63
2022-11-19T13:07:39.079Z,83.18
2022-11-19T13:10:16.687Z,81.94
2022-11-19T13:12:51.364Z,82.81
2022-11-19T13:15:24.316Z,78.39
2022-11-19T13:17:55.800Z,79.71
2022-11-19T13:20:29.022Z,80.57
2022-11-19T13:23:04.334Z,81.87
2022-11-19T13:25:37.388Z,82.54
2022-11-19T13:28:16.048Z,80.92
2022-11-19T13:30:49.877Z,80.87
2022-11-19T13:33:24.328Z,81.30
2022-11-19T13:35:58.959Z,81.62
2022-11-19T13:38:38.159Z,83.67
2022-11-19T13:41:14.150Z,83.88
2022-11-19T13:44:00.285Z,89.18
2022-11-19T13:46:35.259Z,87.06
2022-11-19T13:49:06.728Z,83.78
2022-11-19T13:51:39.983Z,83.28
2022-11-19T13:54:11.025Z,81.63
2022-11-19T13:56:43.434Z,81.62
2022-11-19T13:59:28.962Z,82.28
2022-11-19T14:02:28.864Z,81.93
2022-11-19T14:05:30.909Z,82.82
2022-11-19T14:08:12.514Z,80.20
2022-11-19T14:10:47.353Z,80.59
2022-11-19T14:13:35.031Z,78.02
2022-11-19T14:16:34.069Z,78.89
2022-11-19T14:19:21.569Z,81.56
2022-11-19T14:22:09.768Z,80.17
2022-11-19T14:25:14.727Z,78.58
2022-11-19T14:27:45.761Z,79.06
2022-11-19T14:30:22.135Z,78.96
2022-11-19T14:32:53.389Z,79.36
2022-11-19T14:35:42.677Z,78.28
2022-11-19T14:38:32.506Z,80.68
2022-11-19T14:41:20.116Z,79.77
2022-11-19T14:44:17.546Z,81.47
2022-11-19T14:46:48.335Z,82.74
2022-11-19T14:49:31.304Z,82.64
2022-11-19T14:51:59.948Z,82.32
2022-11-19T14:54:41.190Z,83.18
2022-11-19T14:57:18.527Z,84.02
2022-11-19T14:59:53.384Z,83.73
2022-11-19T15:02:30.248Z,84.66
2022-11-19T15:05:03.202Z,85.21
2022-11-19T15:07:44.999Z,85.77
2022-11-19T15:10:33.174Z,85.74
2022-11-19T15:13:20.333Z,86.07
2022-11-19T15:15:54.019Z,86.98
2022-11-19T15:19:03.402Z,87.51
2022-11-19T15:22:01.525Z,87.93
2022-11-19T15:24:42.588Z,88.27
2022-11-19T15:27:20.763Z,88.79
2022-11-19T15:30:08.353Z,88.96
2022-11-19T15:33:04.894Z,89.05
2022-11-19T15:35:47.278Z,89.55
2022-11-19T15:38:31.005Z,89.45
2022-11-19T15:41:02.564Z,90.22
2022-11-19T15:43:36.232Z,90.04
2022-11-19T15:46:11.966Z,90.55
2022-11-19T15:48:52.887Z,90.25
2022-11-19T15:51:23.259Z,90.34
2022-11-19T15:54:01.807Z,90.57
2022-11-19T15:56:33.519Z,90.58
2022-11-19T15:59:03.351Z,90.92
2022-11-19T16:01:34.586Z,91.21
2022-11-19T16:04:10.266Z,91.09
2022-11-19T16:06:40.331Z,91.30
2022-11-19T16:09:08.966Z,91.42
2022-11-19T16:11:56.345Z,91.16
2022-11-19T16:14:45.341Z,90.99
2022-11-19T16:17:41.627Z,91.59
2022-11-19T16:20:24.286Z,92.39
2022-11-19T16:22:58.297Z,92.95
2022-11-19T16:25:35.793Z,93.22
2022-11-19T16:28:07.784Z,93.48
2022-11-19T16:30:46.481Z,93.21
2022-11-19T16:33:18.878Z,93.59
2022-11-19T16:35:52.904Z,94.00
2022-11-19T16:38:27.679Z,94.30
2022-11-19T16:41:14.241Z,94.50
2022-11-19T16:43:45.021Z,95.61
2022-11-19T16:46:16.994Z,95.12
2022-11-19T16:48:57.071Z,95.61
2022-11-19T16:51:39.078Z,95.52
2022-11-19T16:54:09.872Z,95.79
2022-11-19T16:56:44.140Z,95.75
2022-11-19T16:59:20.695Z,96.27
2022-11-19T17:01:58.833Z,96.45
2022-11-19T17:04:30.503Z,96.60
2022-11-19T17:07:00.805Z,96.96
2022-11-19T17:09:44.821Z,97.11
2022-11-19T17:12:27.702Z,98.13
2022-11-19T17:14:58.686Z,97.89
2022-11-19T17:17:34.408Z,97.13
2022-11-19T17:20:06.288Z,98.20
2022-11-19T17:22:38.040Z,97.48
2022-11-19T17:25:07.249Z,98.55
2022-11-19T17:27:37.746Z,98.88
2022-11-19T17:30:11.271Z,98.49
2022-11-19T17:32:42.398Z,99.00
2022-11-19T17:35:31.451Z,98.57
2022-11-19T17:38:02.124Z,98.80
2022-11-19T17:40:30.598Z,99.31
2022-11-19T17:43:16.190Z,99.29
2022-11-19T17:45:44.579Z,99.64
2022-11-19T17:48:20.119Z,99.90
2022-11-19T17:50:48.529Z,100.00
2022-11-19T17:53:18.427Z,100.00
2022-11-19T17:55:48.801Z,100.00
2022-11-19T17:58:17.384Z,100.00
2022-11-19T18:00:45.855Z,100.00
2022-11-19T18:03:14.906Z,100.00
2022-11-19T18:05:48.195Z,100.00
2022-11-19T18:08:18.273Z,100.00
2022-11-19T18:10:48.824Z,100.00
2022-11-19T18:13:22.069Z,100.00
2022-11-19T18:15:50.465Z,100.00
2022-11-19T18:18:18.888Z,100.00
2022-11-19T18:20:47.306Z,100.00
2022-11-19T18:23:15.763Z,100.00
2022-11-19T18:25:45.689Z,100.00
2022-11-19T18:28:14.076Z,100.00
2022-11-19T18:30:42.477Z,100.00
2022-11-19T18:33:11.142Z,100.00
2022-11-19T18:35:39.537Z,100.00
2022-11-19T18:38:07.920Z,100.00
2022-11-19T18:40:37.371Z,100.00
2022-11-19T18:43:24.299Z,100.00
2022-11-19T18:45:52.702Z,100.00
2022-11-19T18:48:21.256Z,100.00
2022-11-19T18:50:50.006Z,100.00
2022-11-19T18:53:18.403Z,100.00
2022-11-19T18:55:48.503Z,100.00
2022-11-19T18:58:18.389Z,100.00
2022-11-19T19:00:46.863Z,100.00
2022-11-19T19:03:15.650Z,100.00
2022-11-19T19:05:44.071Z,100.00
2022-11-19T19:08:13.593Z,100.00
2022-11-19T19:10:43.238Z,100.00
2022-11-19T19:13:10.507Z,100.00
2022-11-19T19:15:40.313Z,100.00
2022-11-19T19:18:08.708Z,100.00
2022-11-19T19:20:37.343Z,100.00
2022-11-19T19:23:05.717Z,100.00
2022-11-19T19:25:34.104Z,100.00
2022-11-19T19:28:02.450Z,100.00
2022-11-19T19:30:30.835Z,100.00
2022-11-19T19:33:00.591Z,100.00
2022-11-19T19:35:28.944Z,100.00
2022-11-19T19:37:57.457Z,100.00
2022-11-19T19:40:25.903Z,100.00
2022-11-19T19:42:55.665Z,100.00
2022-11-19T19:45:24.005Z,100.00
2022-11-19T19:47:52.390Z,100.00
2022-11-19T19:50:22.238Z,100.00
2022-11-19T19:52:50.642Z,100.00
2022-11-19T19:55:19.046Z,100.00
2022-11-19T19:57:47.493Z,100.00
2022-11-19T20:00:17.248Z,100.00
2022-11-19T20:02:45.646Z,100.00
2022-11-19T20:05:14.021Z,100.00
2022-11-19T20:07:43.825Z,100.00
2022-11-19T20:10:12.901Z,100.00
2022-11-19T20:12:58.891Z,100.00
2022-11-19T20:15:27.258Z,100.00
2022-11-19T20:17:55.659Z,100.00
2022-11-19T20:20:24.002Z,100.00
2022-11-19T20:22:54.102Z,100.00
2022-11-19T20:25:22.449Z,100.00
2022-11-19T20:27:50.869Z,100.00
2022-11-19T20:30:19.519Z,100.00
2022-11-19T20:32:48.865Z,100.00
2022-11-19T20:35:17.343Z,100.00
2022-11-19T20:37:45.740Z,100.00
2022-11-19T20:40:15.681Z,100.00
2022-11-19T20:43:03.500Z,100.00
2022-11-19T20:45:31.993Z,100.00
2022-11-19T20:48:00.786Z,100.00
2022-11-19T20:50:29.192Z,100.00
2022-11-19T20:52:57.550Z,100.00
2022-11-19T20:55:27.450Z,100.00
2022-11-19T20:57:57.352Z,100.00
2022-11-19T21:00:26.046Z,100.00
2022-11-19T21:02:55.020Z,100.00
2022-11-19T21:05:23.367Z,100.00
2022-11-19T21:07:51.722Z,100.00
2022-11-19T21:10:20.092Z,100.00
2022-11-19T21:13:02.747Z,100.00
2022-11-19T21:15:31.796Z,100.00
2022-11-19T21:18:00.372Z,100.00
2022-11-19T21:20:28.748Z,100.00
2022-11-19T21:22:57.304Z,100.00
2022-11-19T21:25:25.688Z,100.00
2022-11-19T21:27:56.700Z,100.00
2022-11-19T21:30:25.384Z,100.00
2022-11-19T21:32:53.961Z,100.00
2022-11-19T21:35:22.545Z,100.00
2022-11-19T21:37:50.913Z,100.00
2022-11-19T21:40:19.660Z,100.00
2022-11-19T21:42:48.261Z,100.00
2022-11-19T21:45:18.313Z,100.00
2022-11-19T21:47:46.854Z,100.00
2022-11-19T21:50:17.129Z,100.00
2022-11-19T21:52:45.668Z,100.00
2022-11-19T21:55:14.157Z,100.00
2022-11-19T21:57:42.517Z,100.00
2022-11-19T22:00:12.950Z,100.00
2022-11-19T22:02:43.095Z,100.00
2022-11-19T22:05:11.687Z,100.00
2022-11-19T22:07:40.126Z,100.00
2022-11-19T22:10:09.321Z,100.00
2022-11-19T22:12:37.805Z,100.00
2022-11-19T22:15:06.893Z,100.00
2022-11-19T22:17:35.341Z,100.00
2022-11-19T22:20:05.913Z,100.00
2022-11-19T22:22:34.343Z,100.00
2022-11-19T22:25:03.291Z,100.00
2022-11-19T22:27:31.677Z,100.00
2022-11-19T22:30:04.533Z,100.00
2022-11-19T22:32:34.468Z,100.00
2022-11-19T22:35:02.837Z,100.00
2022-11-19T22:37:32.677Z,100.00
2022-11-19T22:40:01.193Z,100.00
2022-11-19T22:42:29.639Z,100.00
2022-11-19T22:44:57.971Z,100.00
2022-11-19T22:47:26.301Z,100.00
2022-11-19T22:49:54.663Z,100.00
2022-11-19T22:52:23.193Z,100.00
2022-11-19T22:54:52.992Z,100.00
2022-11-19T22:57:21.397Z,100.00
2022-11-19T22:59:49.716Z,100.00
2022-11-19T23:02:18.093Z,100.00
2022-11-19T23:04:46.437Z,100.00
2022-11-19T23:07:14.824Z,100.00
2022-11-19T23:09:43.288Z,100.00
2022-11-19T23:12:30.257Z,100.00
2022-11-19T23:14:58.604Z,100.00
2022-11-19T23:17:26.962Z,100.00
2022-11-19T23:19:56.564Z,100.00
2022-11-19T23:22:27.563Z,100.00
2022-11-19T23:24:55.914Z,100.00
2022-11-19T23:27:25.671Z,100.00
2022-11-19T23:29:54.043Z,100.00
2022-11-19T23:32:22.408Z,100.00
2022-11-19T23:34:50.792Z,100.00
2022-11-19T23:37:19.394Z,100.00
2022-11-19T23:39:47.739Z,100.00
2022-11-19T23:42:16.177Z,100.00
2022-11-19T23:44:45.892Z,100.00
2022-11-19T23:47:14.488Z,100.00
2022-11-19T23:49:42.905Z,100.00
2022-11-19T23:52:11.367Z,100.00
2022-11-19T23:54:39.822Z,100.00
2022-11-19T23:57:08.223Z,100.00
2022-11-19T23:59:37.073Z,100.00
